Time;durP1;ratioP1;P1;durP2;ratioP2;P2;SDS_P1;SDS_P2;PMS_P1;PMS_P2;Temp;Humidity;BMP_temperature;BMP_pressure;BME280_temperature;BME280_humidity;BME280_pressure;Samples;Min_cycle;Max_cycle;Signal;HPM_P1;HPM_P2
2022/12/07 00:00:41;;;;;;;;;;;6.20;99.90;;;;;;5042395;28;20006;-64
2022/12/07 00:03:07;;;;;;;;;;;6.20;99.90;;;;;;5041625;28;19936;-63
2022/12/07 00:05:32;;;;;;;;;;;6.10;99.90;;;;;;5037188;28;20469;-64
2022/12/07 00:07:58;;;;;;;;;;;6.10;99.90;;;;;;5043850;28;19917;-64
2022/12/07 00:10:23;;;;;;;;;;;6.20;99.90;;;;;;5037912;28;19917;-64
2022/12/07 00:12:49;;;;;;;;;;;6.10;99.90;;;;;;5043252;28;19952;-64
2022/12/07 00:15:15;;;;;;;;;;;6.10;99.90;;;;;;5034654;28;20013;-64
2022/12/07 00:17:40;;;;;;;;;;;6.00;99.90;;;;;;5040040;28;19944;-64
2022/12/07 00:20:06;;;;;;;;;;;6.00;99.90;;;;;;5042147;28;20283;-64
2022/12/07 00:22:32;;;;;;;;;;;6.00;99.90;;;;;;5039987;28;19924;-64
2022/12/07 00:24:57;;;;;;;;;;;6.00;99.90;;;;;;5039905;28;19913;-64
2022/12/07 00:27:23;;;;;;;;;;;6.10;99.90;;;;;;5035682;28;20046;-64
2022/12/07 00:29:48;;;;;;;;;;;6.00;99.90;;;;;;5034208;28;20318;-64
2022/12/07 00:32:14;;;;;;;;;;;6.00;99.90;;;;;;5033162;28;19949;-64
2022/12/07 00:34:39;;;;;;;;;;;5.90;99.90;;;;;;5042503;28;19919;-64
2022/12/07 00:37:04;;;;;;;;;;;5.80;99.90;;;;;;5043447;28;19998;-64
2022/12/07 00:39:30;;;;;;;;;;;5.80;99.90;;;;;;5037795;28;20303;-64
2022/12/07 00:41:55;;;;;;;;;;;5.80;99.90;;;;;;5040153;28;19913;-64
2022/12/07 00:44:21;;;;;;;;;;;5.80;99.90;;;;;;5038166;28;19925;-64
2022/12/07 00:46:46;;;;;;;;;;;5.80;99.90;;;;;;5040254;28;20014;-64
2022/12/07 00:49:12;;;;;;;;;;;5.90;99.90;;;;;;5040433;28;20015;-64
2022/12/07 00:51:37;;;;;;;;;;;6.00;99.90;;;;;;5042168;28;19917;-64
2022/12/07 00:54:03;;;;;;;;;;;6.10;99.90;;;;;;5037676;28;20062;-64
2022/12/07 00:56:29;;;;;;;;;;;6.00;99.90;;;;;;5040561;28;19925;-64
2022/12/07 00:58:55;;;;;;;;;;;6.00;99.90;;;;;;5040411;28;19913;-64
2022/12/07 01:01:21;;;;;;;;;;;5.80;99.90;;;;;;5034779;28;21015;-64
2022/12/07 01:03:47;;;;;;;;;;;5.80;99.90;;;;;;5035490;28;19920;-64
2022/12/07 01:06:17;;;;;;;;;;;5.80;99.90;;;;;;5032855;28;19923;-64
2022/12/07 01:08:42;;;;;;;;;;;5.80;99.90;;;;;;5036966;28;20287;-64
2022/12/07 01:11:09;;;;;;;;;;;5.80;99.90;;;;;;5035779;28;20019;-64
2022/12/07 01:13:35;;;;;;;;;;;6.00;99.90;;;;;;5042453;28;19921;-64
2022/12/07 01:16:01;;;;;;;;;;;6.00;99.90;;;;;;5041259;28;19921;-64
2022/12/07 01:18:27;;;;;;;;;;;6.00;99.90;;;;;;5038273;28;19917;-64
2022/12/07 01:21:06;;;;;;;;;;;6.00;99.90;;;;;;5038236;28;19921;-64
2022/12/07 01:23:32;;;;;;;;;;;6.10;99.90;;;;;;5040240;28;19960;-64
2022/12/07 01:25:58;;;;;;;;;;;6.10;99.90;;;;;;5040458;28;19917;-64
2022/12/07 01:28:24;;;;;;;;;;;6.10;99.90;;;;;;5041354;28;19916;-64
2022/12/07 01:30:59;;;;;;;;;;;5.90;99.90;;;;;;5037451;28;19924;-64
2022/12/07 01:33:26;;;;;;;;;;;5.80;99.90;;;;;;5037721;28;21735;-65
2022/12/07 01:35:51;;;;;;;;;;;5.70;99.90;;;;;;5039847;28;19912;-64
2022/12/07 01:38:17;;;;;;;;;;;5.70;99.90;;;;;;5040966;28;19923;-64
2022/12/07 01:40:42;;;;;;;;;;;5.60;99.90;;;;;;5039719;28;19920;-64
2022/12/07 01:43:27;;;;;;;;;;;5.60;99.90;;;;;;5035465;28;19971;-64
2022/12/07 01:45:53;;;;;;;;;;;5.50;99.90;;;;;;5038747;28;19959;-65
2022/12/07 01:48:20;;;;;;;;;;;5.40;99.90;;;;;;5040643;28;19948;-64
2022/12/07 01:50:48;;;;;;;;;;;5.50;99.90;;;;;;5039446;28;19966;-64
2022/12/07 01:53:14;;;;;;;;;;;5.60;99.90;;;;;;5039483;28;19921;-65
2022/12/07 01:55:41;;;;;;;;;;;5.50;99.90;;;;;;5038256;28;20292;-65
2022/12/07 01:58:07;;;;;;;;;;;5.60;99.90;;;;;;5039346;28;19959;-64
2022/12/07 02:00:32;;;;;;;;;;;5.50;99.90;;;;;;5039285;28;19960;-64
2022/12/07 02:03:00;;;;;;;;;;;5.50;99.90;;;;;;5038776;28;19917;-64
2022/12/07 02:05:26;;;;;;;;;;;5.40;99.90;;;;;;5038627;28;20029;-64
2022/12/07 02:07:53;;;;;;;;;;;5.40;99.90;;;;;;5038336;28;20360;-65
2022/12/07 02:10:21;;;;;;;;;;;5.50;99.90;;;;;;5036789;28;20611;-65
2022/12/07 02:12:50;;;;;;;;;;;5.60;99.90;;;;;;5043067;28;19913;-64
2022/12/07 02:15:15;;;;;;;;;;;5.60;99.90;;;;;;5035413;28;19913;-65
2022/12/07 02:17:47;;;;;;;;;;;5.60;99.90;;;;;;5038938;28;19948;-65
2022/12/07 02:20:23;;;;;;;;;;;5.60;99.90;;;;;;5037024;28;20438;-65
2022/12/07 02:23:17;;;;;;;;;;;5.70;99.90;;;;;;5033212;28;19936;-64
2022/12/07 02:25:45;;;;;;;;;;;5.60;99.90;;;;;;5044972;28;19913;-65
2022/12/07 02:28:20;;;;;;;;;;;5.40;99.90;;;;;;5035892;28;19917;-64
2022/12/07 02:30:47;;;;;;;;;;;5.60;99.90;;;;;;5033816;28;20124;-64
2022/12/07 02:33:38;;;;;;;;;;;5.50;99.90;;;;;;5037384;28;19917;-64
2022/12/07 02:36:06;;;;;;;;;;;5.60;99.90;;;;;;5033922;28;19920;-64
2022/12/07 02:38:38;;;;;;;;;;;5.40;99.90;;;;;;5037211;28;19921;-64
2022/12/07 02:41:05;;;;;;;;;;;5.40;99.90;;;;;;5036724;28;19927;-64
2022/12/07 02:43:34;;;;;;;;;;;5.50;99.90;;;;;;5041473;28;19948;-64
2022/12/07 02:46:11;;;;;;;;;;;5.60;99.90;;;;;;5041329;28;20518;-64
2022/12/07 02:48:38;;;;;;;;;;;5.50;99.90;;;;;;5041420;28;20403;-64
2022/12/07 02:51:04;;;;;;;;;;;5.60;99.90;;;;;;5038880;28;19960;-64
2022/12/07 02:53:31;;;;;;;;;;;5.50;99.90;;;;;;5041704;28;19959;-64
2022/12/07 02:55:56;;;;;;;;;;;5.50;99.90;;;;;;5041091;28;20360;-65
2022/12/07 02:58:22;;;;;;;;;;;5.50;99.90;;;;;;5038694;28;19945;-64
2022/12/07 03:00:54;;;;;;;;;;;5.20;99.90;;;;;;5040156;28;20718;-64
2022/12/07 03:03:20;;;;;;;;;;;5.20;99.90;;;;;;5034660;28;19921;-64
2022/12/07 03:05:46;;;;;;;;;;;5.20;99.90;;;;;;5040701;28;20311;-64
2022/12/07 03:08:25;;;;;;;;;;;5.10;99.90;;;;;;5039241;28;19986;-64
2022/12/07 03:10:53;;;;;;;;;;;5.00;99.90;;;;;;5037381;28;20461;-64
2022/12/07 03:13:29;;;;;;;;;;;5.20;99.90;;;;;;5037150;28;19960;-64
2022/12/07 03:15:55;;;;;;;;;;;5.10;99.90;;;;;;5039608;28;19920;-64
2022/12/07 03:18:22;;;;;;;;;;;5.00;99.90;;;;;;5039079;28;19917;-64
2022/12/07 03:20:50;;;;;;;;;;;5.10;99.90;;;;;;5040654;28;19920;-64
2022/12/07 03:23:17;;;;;;;;;;;5.10;99.90;;;;;;5036976;28;19979;-64
2022/12/07 03:25:45;;;;;;;;;;;5.10;99.90;;;;;;5038979;28;19942;-64
2022/12/07 03:28:13;;;;;;;;;;;5.10;99.90;;;;;;5040588;28;19996;-64
2022/12/07 03:30:42;;;;;;;;;;;5.10;99.90;;;;;;5040053;28;19944;-64
2022/12/07 03:33:12;;;;;;;;;;;5.00;99.90;;;;;;5037250;28;19917;-64
2022/12/07 03:35:47;;;;;;;;;;;4.90;99.90;;;;;;5041503;28;19917;-64
2022/12/07 03:38:19;;;;;;;;;;;4.80;99.90;;;;;;5037175;28;20331;-64
2022/12/07 03:40:45;;;;;;;;;;;4.80;99.90;;;;;;5037368;28;20007;-64
2022/12/07 03:43:10;;;;;;;;;;;4.80;99.90;;;;;;5038642;28;19995;-65
2022/12/07 03:45:53;;;;;;;;;;;5.00;99.90;;;;;;5037314;28;20348;-64
2022/12/07 03:48:39;;;;;;;;;;;4.80;99.90;;;;;;5037174;28;20387;-64
2022/12/07 03:51:11;;;;;;;;;;;4.80;99.90;;;;;;5036742;28;19912;-65
2022/12/07 03:53:46;;;;;;;;;;;4.80;99.90;;;;;;5039119;28;19925;-64
2022/12/07 03:56:12;;;;;;;;;;;4.90;99.90;;;;;;5037862;28;20272;-64
2022/12/07 03:58:38;;;;;;;;;;;5.00;99.90;;;;;;5031108;28;19923;-64
2022/12/07 04:01:03;;;;;;;;;;;4.90;99.90;;;;;;5037280;28;19994;-64
2022/12/07 04:03:29;;;;;;;;;;;4.90;99.90;;;;;;5042085;28;19920;-64
2022/12/07 04:05:54;;;;;;;;;;;5.00;99.90;;;;;;5038272;28;20380;-64
2022/12/07 04:08:20;;;;;;;;;;;5.00;99.90;;;;;;5034021;28;19921;-64
2022/12/07 04:10:45;;;;;;;;;;;5.00;99.90;;;;;;5038237;28;19920;-65
2022/12/07 04:13:11;;;;;;;;;;;4.80;99.90;;;;;;5034967;28;19974;-64
2022/12/07 04:15:36;;;;;;;;;;;4.60;99.90;;;;;;5038159;28;19925;-64
2022/12/07 04:18:02;;;;;;;;;;;4.80;99.90;;;;;;5039993;28;19913;-64
2022/12/07 04:20:27;;;;;;;;;;;4.80;99.90;;;;;;5035699;28;19917;-64
2022/12/07 04:22:53;;;;;;;;;;;4.80;99.90;;;;;;5036794;28;19928;-64
2022/12/07 04:25:18;;;;;;;;;;;4.60;99.90;;;;;;5038892;28;19923;-64
2022/12/07 04:27:44;;;;;;;;;;;4.80;99.90;;;;;;5038050;28;19917;-64
2022/12/07 04:30:09;;;;;;;;;;;4.70;99.90;;;;;;5038466;28;20008;-64
2022/12/07 04:32:35;;;;;;;;;;;4.70;99.90;;;;;;5035458;28;20538;-64
2022/12/07 04:35:00;;;;;;;;;;;4.90;99.90;;;;;;5038057;28;20276;-65
2022/12/07 04:37:26;;;;;;;;;;;5.00;99.90;;;;;;5042146;28;20844;-65
2022/12/07 04:39:51;;;;;;;;;;;5.10;99.90;;;;;;5039604;28;19913;-64
2022/12/07 04:42:16;;;;;;;;;;;4.90;99.90;;;;;;5037751;28;19916;-64
2022/12/07 04:44:42;;;;;;;;;;;4.60;99.90;;;;;;5036646;28;20349;-64
2022/12/07 04:47:07;;;;;;;;;;;4.50;99.90;;;;;;5037988;28;19917;-64
2022/12/07 04:49:33;;;;;;;;;;;4.60;99.90;;;;;;5039479;28;19912;-64
2022/12/07 04:51:58;;;;;;;;;;;4.60;99.90;;;;;;5035271;28;20007;-64
2022/12/07 04:54:24;;;;;;;;;;;4.60;99.90;;;;;;5039904;28;20814;-65
2022/12/07 04:56:49;;;;;;;;;;;4.50;99.90;;;;;;5037690;28;19919;-65
2022/12/07 04:59:16;;;;;;;;;;;4.40;99.90;;;;;;5036276;28;20012;-65
2022/12/07 05:01:41;;;;;;;;;;;4.50;99.90;;;;;;5036628;28;20012;-65
2022/12/07 05:04:07;;;;;;;;;;;4.40;99.90;;;;;;5037892;28;20021;-65
2022/12/07 05:06:33;;;;;;;;;;;4.40;99.90;;;;;;5037301;28;20416;-65
2022/12/07 05:08:58;;;;;;;;;;;4.50;99.90;;;;;;5036272;28;20376;-65
2022/12/07 05:11:39;;;;;;;;;;;4.50;99.90;;;;;;5037860;28;20004;-66
2022/12/07 05:14:18;;;;;;;;;;;4.60;99.90;;;;;;5037622;28;19913;-65
2022/12/07 05:16:44;;;;;;;;;;;4.60;99.90;;;;;;5037103;28;19952;-64
2022/12/07 05:19:10;;;;;;;;;;;4.60;99.90;;;;;;5039996;28;19916;-64
2022/12/07 05:21:36;;;;;;;;;;;4.70;99.90;;;;;;5037989;28;19924;-64
2022/12/07 05:24:04;;;;;;;;;;;4.80;99.90;;;;;;5040283;28;22536;-65
2022/12/07 05:26:29;;;;;;;;;;;4.80;99.90;;;;;;5036656;28;19913;-64
2022/12/07 05:28:58;;;;;;;;;;;4.90;99.90;;;;;;5042811;28;20012;-65
2022/12/07 05:31:24;;;;;;;;;;;4.90;99.90;;;;;;5038761;28;20437;-65
2022/12/07 05:33:49;;;;;;;;;;;4.90;99.90;;;;;;5035847;28;19913;-64
2022/12/07 05:36:15;;;;;;;;;;;4.70;99.90;;;;;;5036887;28;20386;-65
2022/12/07 05:38:40;;;;;;;;;;;4.70;99.90;;;;;;5040363;28;19944;-64
2022/12/07 05:41:07;;;;;;;;;;;4.70;99.90;;;;;;5039941;28;19917;-65
2022/12/07 05:43:32;;;;;;;;;;;4.80;99.90;;;;;;5039258;28;20033;-65
2022/12/07 05:45:58;;;;;;;;;;;4.90;99.90;;;;;;5042378;28;19952;-65
2022/12/07 05:48:24;;;;;;;;;;;5.00;99.90;;;;;;5038225;28;20287;-64
2022/12/07 05:50:50;;;;;;;;;;;5.00;99.90;;;;;;5043062;28;19920;-64
2022/12/07 05:53:16;;;;;;;;;;;4.90;99.90;;;;;;5037512;28;19917;-65
2022/12/07 05:55:41;;;;;;;;;;;5.00;99.90;;;;;;5042643;28;20012;-65
2022/12/07 06:00:51;;;;;;;;;;;4.90;99.90;;;;;;5035613;28;20236;-64
2022/12/07 06:03:16;;;;;;;;;;;4.90;99.90;;;;;;5033754;28;19932;-65
2022/12/07 06:05:42;;;;;;;;;;;5.00;99.90;;;;;;5039398;28;19912;-65
2022/12/07 06:08:07;;;;;;;;;;;4.80;99.90;;;;;;5040842;28;19960;-64
2022/12/07 06:10:33;;;;;;;;;;;4.90;99.90;;;;;;5026282;28;20893;-64
2022/12/07 06:12:58;;;;;;;;;;;4.90;99.90;;;;;;5036509;28;19966;-64
2022/12/07 06:15:24;;;;;;;;;;;4.90;99.90;;;;;;5035199;28;19917;-65
2022/12/07 06:17:49;;;;;;;;;;;4.80;99.90;;;;;;5038998;28;19988;-65
2022/12/07 06:20:15;;;;;;;;;;;4.90;99.90;;;;;;5038672;28;19912;-65
2022/12/07 06:22:40;;;;;;;;;;;5.00;99.90;;;;;;5041320;28;20679;-65
2022/12/07 06:25:07;;;;;;;;;;;5.10;99.90;;;;;;5040996;28;19983;-65
2022/12/07 06:27:32;;;;;;;;;;;5.20;99.90;;;;;;5043272;28;19966;-65
2022/12/07 06:29:58;;;;;;;;;;;5.10;99.90;;;;;;5042351;28;21296;-66
2022/12/07 06:32:24;;;;;;;;;;;5.10;99.90;;;;;;5039349;28;20364;-65
2022/12/07 06:34:49;;;;;;;;;;;5.20;99.90;;;;;;5043350;28;19934;-65
2022/12/07 06:37:15;;;;;;;;;;;5.30;99.90;;;;;;5040721;28;20532;-65
2022/12/07 06:39:40;;;;;;;;;;;5.20;99.90;;;;;;5038461;28;19912;-65
2022/12/07 06:42:05;;;;;;;;;;;5.10;99.90;;;;;;5039003;28;19949;-65
2022/12/07 06:44:31;;;;;;;;;;;5.20;99.90;;;;;;5040512;28;19936;-65
2022/12/07 06:46:56;;;;;;;;;;;5.10;99.90;;;;;;5041482;28;20042;-65
2022/12/07 06:49:22;;;;;;;;;;;5.00;99.90;;;;;;5041983;28;20003;-65
2022/12/07 06:51:47;;;;;;;;;;;5.10;99.90;;;;;;5040503;28;20012;-64
2022/12/07 06:54:13;;;;;;;;;;;5.00;99.90;;;;;;5039515;28;20311;-65
2022/12/07 06:56:39;;;;;;;;;;;4.90;99.90;;;;;;5035659;28;20032;-65
2022/12/07 06:59:06;;;;;;;;;;;5.00;99.90;;;;;;5038144;28;20011;-65
2022/12/07 07:01:32;;;;;;;;;;;5.10;99.90;;;;;;5037296;28;19921;-65
2022/12/07 07:03:57;;;;;;;;;;;4.90;99.90;;;;;;5040198;28;19924;-65
2022/12/07 07:06:23;;;;;;;;;;;5.10;99.90;;;;;;5042910;28;19912;-65
2022/12/07 07:08:48;;;;;;;;;;;5.10;99.90;;;;;;5033967;28;19916;-65
2022/12/07 07:11:14;;;;;;;;;;;5.00;99.90;;;;;;5041102;28;20008;-65
2022/12/07 07:13:39;;;;;;;;;;;4.90;99.90;;;;;;5039515;28;19917;-66
2022/12/07 07:16:05;;;;;;;;;;;5.00;99.90;;;;;;5039778;28;19924;-65
2022/12/07 07:18:30;;;;;;;;;;;4.90;99.90;;;;;;5038572;28;19924;-65
2022/12/07 07:20:56;;;;;;;;;;;4.90;99.90;;;;;;5039361;28;19924;-65
2022/12/07 07:23:22;;;;;;;;;;;4.80;99.90;;;;;;5039452;28;19917;-64
2022/12/07 07:25:50;;;;;;;;;;;4.80;99.90;;;;;;5036236;28;19916;-65
2022/12/07 07:28:15;;;;;;;;;;;4.70;99.90;;;;;;5037838;28;19927;-65
2022/12/07 07:30:41;;;;;;;;;;;4.60;99.90;;;;;;5040721;28;20721;-65
2022/12/07 07:33:07;;;;;;;;;;;4.50;99.90;;;;;;5040475;28;19920;-65
2022/12/07 07:35:33;;;;;;;;;;;4.50;99.90;;;;;;5039894;28;19913;-65
2022/12/07 07:37:59;;;;;;;;;;;4.50;99.90;;;;;;5040671;28;19917;-64
2022/12/07 07:40:25;;;;;;;;;;;4.40;99.90;;;;;;5038403;28;19924;-65
2022/12/07 07:42:52;;;;;;;;;;;4.40;99.90;;;;;;5037753;28;20521;-65
2022/12/07 07:45:18;;;;;;;;;;;4.30;99.90;;;;;;5040212;28;19924;-65
2022/12/07 07:47:43;;;;;;;;;;;4.40;99.90;;;;;;5038665;28;20374;-65
2022/12/07 07:50:09;;;;;;;;;;;4.40;99.90;;;;;;5040789;28;19917;-64
2022/12/07 07:52:34;;;;;;;;;;;4.40;99.90;;;;;;5030570;28;19986;-65
2022/12/07 07:55:00;;;;;;;;;;;4.30;99.90;;;;;;5039652;28;19924;-65
2022/12/07 07:57:25;;;;;;;;;;;4.30;99.90;;;;;;5038088;28;19948;-65
2022/12/07 07:59:51;;;;;;;;;;;4.30;99.90;;;;;;5039008;28;20334;-65
2022/12/07 08:02:18;;;;;;;;;;;4.30;99.90;;;;;;5035897;28;19917;-64
2022/12/07 08:04:44;;;;;;;;;;;4.40;99.90;;;;;;5035179;28;19966;-63
2022/12/07 08:07:10;;;;;;;;;;;4.40;99.90;;;;;;5038499;28;19917;-64
2022/12/07 08:09:35;;;;;;;;;;;4.40;99.90;;;;;;5034828;28;20434;-63
2022/12/07 08:12:01;;;;;;;;;;;4.40;99.90;;;;;;5030425;28;19927;-64
2022/12/07 08:14:28;;;;;;;;;;;4.60;99.90;;;;;;5052325;28;20287;-64
2022/12/07 08:16:54;;;;;;;;;;;4.50;99.90;;;;;;5053401;28;19964;-64
2022/12/07 08:19:19;;;;;;;;;;;4.40;99.90;;;;;;5054280;28;19959;-64
2022/12/07 08:21:45;;;;;;;;;;;4.40;99.90;;;;;;5050462;28;19994;-63
2022/12/07 08:24:10;;;;;;;;;;;4.40;99.90;;;;;;5052228;28;19932;-64
2022/12/07 08:26:36;;;;;;;;;;;4.50;99.90;;;;;;5059324;28;19920;-63
2022/12/07 08:29:01;;;;;;;;;;;4.60;99.90;;;;;;5057294;28;20401;-63
2022/12/07 08:31:27;;;;;;;;;;;4.60;99.90;;;;;;5048590;28;19921;-64
2022/12/07 08:33:53;;;;;;;;;;;4.60;99.90;;;;;;5055743;28;19912;-63
2022/12/07 08:36:18;;;;;;;;;;;4.70;99.90;;;;;;5054769;28;20254;-63
2022/12/07 08:38:44;;;;;;;;;;;4.80;99.90;;;;;;5056915;28;20581;-64
2022/12/07 08:41:09;;;;;;;;;;;4.90;99.90;;;;;;5055571;28;19913;-64
2022/12/07 08:43:35;;;;;;;;;;;4.90;99.90;;;;;;5059802;28;19920;-64
2022/12/07 08:46:08;;;;;;;;;;;4.90;99.90;;;;;;5059711;28;19919;-64
2022/12/07 08:48:35;;;;;;;;;;;5.10;99.90;;;;;;5055967;28;19917;-64
2022/12/07 08:51:01;;;;;;;;;;;5.00;99.90;;;;;;5057596;28;19947;-64
2022/12/07 08:53:27;;;;;;;;;;;5.10;99.90;;;;;;5058933;28;20570;-64
2022/12/07 08:55:52;;;;;;;;;;;5.20;99.90;;;;;;5060488;28;19926;-64
2022/12/07 08:58:18;;;;;;;;;;;5.20;99.90;;;;;;5056070;28;20083;-64
2022/12/07 09:00:43;;;;;;;;;;;5.10;99.90;;;;;;5054912;28;19927;-64
2022/12/07 09:03:09;;;;;;;;;;;5.00;99.90;;;;;;5057329;28;19921;-64
2022/12/07 09:05:34;;;;;;;;;;;4.90;99.90;;;;;;5050698;28;20300;-64
2022/12/07 09:08:01;;;;;;;;;;;4.90;99.90;;;;;;5053925;28;19924;-64
2022/12/07 09:10:26;;;;;;;;;;;5.00;99.90;;;;;;5049701;28;19924;-65
2022/12/07 09:12:52;;;;;;;;;;;5.00;99.90;;;;;;5033832;28;19913;-64
2022/12/07 09:15:17;;;;;;;;;;;5.00;99.90;;;;;;5031724;28;19913;-65
2022/12/07 09:17:43;;;;;;;;;;;5.10;99.90;;;;;;5033903;28;19927;-64
2022/12/07 09:20:09;;;;;;;;;;;5.20;99.90;;;;;;5042756;28;20362;-64
2022/12/07 09:22:34;;;;;;;;;;;5.20;99.90;;;;;;5031961;28;19921;-64
2022/12/07 09:25:00;;;;;;;;;;;5.40;99.90;;;;;;5037170;28;20039;-64
2022/12/07 09:27:26;;;;;;;;;;;5.30;99.90;;;;;;5040220;28;19918;-64
2022/12/07 09:29:51;;;;;;;;;;;5.40;99.90;;;;;;5043424;28;19924;-64
2022/12/07 09:32:17;;;;;;;;;;;5.40;99.90;;;;;;5041934;28;19923;-65
2022/12/07 09:34:42;;;;;;;;;;;5.50;99.90;;;;;;5039023;28;20432;-64
2022/12/07 09:37:08;;;;;;;;;;;5.40;99.90;;;;;;5035117;28;19913;-64
2022/12/07 09:39:33;;;;;;;;;;;5.30;99.90;;;;;;5035705;28;19923;-64
2022/12/07 09:42:00;;;;;;;;;;;5.30;99.90;;;;;;5036103;28;19987;-64
2022/12/07 09:44:26;;;;;;;;;;;5.30;99.90;;;;;;5037673;28;19925;-64
2022/12/07 09:46:52;;;;;;;;;;;5.30;99.90;;;;;;5037980;28;19917;-64
2022/12/07 09:49:22;;;;;;;;;;;5.30;99.90;;;;;;5037275;28;20360;-64
2022/12/07 09:51:57;;;;;;;;;;;5.20;99.90;;;;;;5040235;28;19912;-64
2022/12/07 09:54:22;;;;;;;;;;;5.20;99.90;;;;;;5039184;28;19924;-64
2022/12/07 09:56:48;;;;;;;;;;;5.30;99.90;;;;;;5042633;28;19917;-64
2022/12/07 09:59:16;;;;;;;;;;;5.40;99.90;;;;;;5040810;28;19919;-65
2022/12/07 10:01:42;;;;;;;;;;;5.50;99.90;;;;;;5047627;28;19928;-65
2022/12/07 10:04:16;;;;;;;;;;;5.40;99.90;;;;;;5044336;28;19924;-65
2022/12/07 10:06:42;;;;;;;;;;;5.40;99.90;;;;;;5041095;28;19920;-65
2022/12/07 10:09:14;;;;;;;;;;;5.50;99.90;;;;;;5040606;28;19928;-65
2022/12/07 10:11:58;;;;;;;;;;;5.60;99.90;;;;;;5041118;28;20460;-65
2022/12/07 10:14:26;;;;;;;;;;;5.60;99.90;;;;;;5055204;28;19936;-63
2022/12/07 10:16:52;;;;;;;;;;;5.70;99.90;;;;;;5042068;28;20544;-63
2022/12/07 10:19:17;;;;;;;;;;;5.60;99.90;;;;;;5041982;28;19919;-63
2022/12/07 10:21:58;;;;;;;;;;;5.70;99.90;;;;;;5040355;28;19921;-63
2022/12/07 10:24:23;;;;;;;;;;;5.70;99.90;;;;;;5041760;28;20533;-63
2022/12/07 10:26:53;;;;;;;;;;;5.80;99.90;;;;;;5041239;28;19927;-64
2022/12/07 10:29:19;;;;;;;;;;;5.80;99.90;;;;;;5039454;28;19963;-64
2022/12/07 10:32:04;;;;;;;;;;;5.90;99.90;;;;;;5040859;28;19924;-64
2022/12/07 10:34:37;;;;;;;;;;;5.90;99.90;;;;;;5046064;28;20310;-66
2022/12/07 10:37:08;;;;;;;;;;;6.00;99.90;;;;;;5040487;28;20371;-65
2022/12/07 10:39:44;;;;;;;;;;;5.80;99.90;;;;;;5038653;28;19920;-65
2022/12/07 10:42:16;;;;;;;;;;;6.00;99.90;;;;;;5044733;28;19913;-64
2022/12/07 10:44:42;;;;;;;;;;;6.00;99.90;;;;;;5038287;28;19993;-64
2022/12/07 10:47:17;;;;;;;;;;;6.00;99.90;;;;;;5038028;28;19943;-64
2022/12/07 10:50:01;;;;;;;;;;;6.00;99.90;;;;;;5041030;28;19913;-64
2022/12/07 10:52:45;;;;;;;;;;;6.00;99.90;;;;;;5036733;28;20276;-64
2022/12/07 10:55:12;;;;;;;;;;;6.00;99.90;;;;;;5041123;28;19995;-63
2022/12/07 10:57:48;;;;;;;;;;;5.90;99.90;;;;;;5038886;28;20791;-64
2022/12/07 11:00:24;;;;;;;;;;;6.00;99.90;;;;;;5055816;28;19920;-64
2022/12/07 11:02:52;;;;;;;;;;;6.00;99.90;;;;;;5036416;28;19969;-63
2022/12/07 11:05:30;;;;;;;;;;;6.00;99.90;;;;;;5037826;28;19920;-64
2022/12/07 11:08:14;;;;;;;;;;;6.20;99.90;;;;;;5039915;28;20327;-64
2022/12/07 11:10:42;;;;;;;;;;;6.20;99.90;;;;;;5038829;28;20290;-64
2022/12/07 11:13:21;;;;;;;;;;;6.30;99.90;;;;;;5041285;28;19967;-64
2022/12/07 11:15:49;;;;;;;;;;;6.40;99.90;;;;;;5040841;28;20039;-64
2022/12/07 11:18:14;;;;;;;;;;;6.40;99.90;;;;;;5037244;28;19924;-64
2022/12/07 11:20:49;;;;;;;;;;;6.50;99.90;;;;;;5041519;28;20241;-66
2022/12/07 11:23:26;;;;;;;;;;;6.50;99.90;;;;;;5036994;28;19924;-64
2022/12/07 11:26:07;;;;;;;;;;;6.50;99.90;;;;;;5037783;28;19917;-64
2022/12/07 11:28:39;;;;;;;;;;;6.60;99.90;;;;;;5057360;28;20633;-64
2022/12/07 11:31:12;;;;;;;;;;;6.60;99.90;;;;;;5060170;28;19932;-65
2022/12/07 11:33:46;;;;;;;;;;;6.60;99.90;;;;;;5058348;28;20230;-64
2022/12/07 11:36:33;;;;;;;;;;;6.50;99.90;;;;;;5057144;28;20450;-64
2022/12/07 11:39:04;;;;;;;;;;;6.50;99.90;;;;;;5058359;28;19917;-64
2022/12/07 11:41:32;;;;;;;;;;;6.60;99.90;;;;;;5048467;28;19913;-64
2022/12/07 11:44:07;;;;;;;;;;;6.70;99.90;;;;;;5038090;28;19921;-64
2022/12/07 11:46:41;;;;;;;;;;;6.70;99.90;;;;;;5043779;28;20359;-64
2022/12/07 11:49:33;;;;;;;;;;;6.80;99.90;;;;;;5038873;28;19923;-64
2022/12/07 11:52:01;;;;;;;;;;;6.70;99.90;;;;;;5022671;28;19963;-64
2022/12/07 11:54:29;;;;;;;;;;;6.90;99.90;;;;;;5037846;28;19920;-64
2022/12/07 11:56:59;;;;;;;;;;;6.90;99.90;;;;;;5043905;28;20202;-65
2022/12/07 11:59:32;;;;;;;;;;;6.90;99.90;;;;;;5039336;28;19917;-64
2022/12/07 12:02:12;;;;;;;;;;;6.90;99.90;;;;;;5039385;28;19917;-65
2022/12/07 12:04:40;;;;;;;;;;;6.90;99.90;;;;;;5040517;28;19975;-64
2022/12/07 12:07:06;;;;;;;;;;;6.90;99.90;;;;;;5035796;28;19920;-64
2022/12/07 12:09:41;;;;;;;;;;;6.80;99.90;;;;;;5041046;28;20572;-65
2022/12/07 12:12:16;;;;;;;;;;;6.70;99.90;;;;;;5039544;28;20089;-66
2022/12/07 12:14:41;;;;;;;;;;;6.90;99.90;;;;;;5053118;28;19917;-64
2022/12/07 12:17:13;;;;;;;;;;;6.90;99.90;;;;;;5036805;28;19925;-64
2022/12/07 12:19:45;;;;;;;;;;;6.80;99.90;;;;;;5038141;28;19921;-64
2022/12/07 12:22:20;;;;;;;;;;;6.90;99.90;;;;;;5035139;28;19927;-64
2022/12/07 12:24:49;;;;;;;;;;;6.90;99.90;;;;;;5038866;28;19929;-64
2022/12/07 12:27:26;;;;;;;;;;;6.70;99.90;;;;;;5035678;28;19912;-64
2022/12/07 12:29:53;;;;;;;;;;;6.70;99.90;;;;;;5041294;28;20384;-64
2022/12/07 12:32:21;;;;;;;;;;;6.80;99.90;;;;;;5035685;28;19917;-64
2022/12/07 12:34:46;;;;;;;;;;;6.90;99.90;;;;;;5031959;28;19917;-64
2022/12/07 12:37:32;;;;;;;;;;;6.90;99.90;;;;;;5040603;28;19920;-64
2022/12/07 12:40:15;;;;;;;;;;;6.70;99.90;;;;;;5037748;28;20564;-64
2022/12/07 12:42:51;;;;;;;;;;;6.80;99.90;;;;;;5042814;28;20292;-64
2022/12/07 12:45:16;;;;;;;;;;;6.80;99.90;;;;;;5036196;28;19920;-66
2022/12/07 12:47:51;;;;;;;;;;;6.80;99.90;;;;;;5036881;28;20040;-65
2022/12/07 12:50:21;;;;;;;;;;;6.90;99.90;;;;;;5033102;28;20340;-65
2022/12/07 12:52:52;;;;;;;;;;;6.80;99.90;;;;;;5033796;28;20368;-65
2022/12/07 12:55:20;;;;;;;;;;;6.90;99.90;;;;;;5036659;28;19922;-64
2022/12/07 12:57:46;;;;;;;;;;;6.90;99.90;;;;;;5036675;28;19913;-64
2022/12/07 13:00:15;;;;;;;;;;;6.90;99.90;;;;;;5039862;28;19920;-65
2022/12/07 13:02:56;;;;;;;;;;;7.00;99.90;;;;;;5035052;28;19917;-65
2022/12/07 13:05:27;;;;;;;;;;;7.00;99.90;;;;;;5038855;28;19925;-64
2022/12/07 13:07:55;;;;;;;;;;;7.00;99.90;;;;;;5034463;28;20372;-65
2022/12/07 13:10:20;;;;;;;;;;;6.90;99.90;;;;;;5038779;28;20432;-65
2022/12/07 13:12:55;;;;;;;;;;;6.80;99.90;;;;;;5035759;28;19914;-65
2022/12/07 13:15:33;;;;;;;;;;;7.00;99.90;;;;;;5034860;28;19962;-65
2022/12/07 13:18:00;;;;;;;;;;;6.90;99.90;;;;;;5034084;28;19917;-64
2022/12/07 13:20:46;;;;;;;;;;;7.00;99.90;;;;;;5036670;28;19921;-64
2022/12/07 13:23:12;;;;;;;;;;;7.00;99.90;;;;;;5037047;28;20171;-65
2022/12/07 13:25:42;;;;;;;;;;;7.10;99.90;;;;;;5038224;28;19924;-66
2022/12/07 13:28:15;;;;;;;;;;;7.10;99.90;;;;;;5040999;28;20571;-66
2022/12/07 13:30:44;;;;;;;;;;;7.00;99.90;;;;;;5032397;28;19913;-65
2022/12/07 13:33:10;;;;;;;;;;;6.90;99.90;;;;;;5036804;28;19917;-65
2022/12/07 13:35:40;;;;;;;;;;;6.90;99.90;;;;;;5042370;28;19913;-65
2022/12/07 13:38:26;;;;;;;;;;;7.00;99.90;;;;;;5037984;28;19923;-66
2022/12/07 13:41:10;;;;;;;;;;;7.10;99.90;;;;;;5035707;28;20347;-65
2022/12/07 13:43:42;;;;;;;;;;;7.10;99.90;;;;;;5041869;28;20514;-65
2022/12/07 13:46:16;;;;;;;;;;;7.20;99.90;;;;;;5038338;28;19917;-65
2022/12/07 13:48:46;;;;;;;;;;;7.00;99.90;;;;;;5035286;28;19917;-66
2022/12/07 13:51:22;;;;;;;;;;;7.00;99.90;;;;;;5035272;28;19998;-64
2022/12/07 13:53:53;;;;;;;;;;;7.10;99.90;;;;;;5036202;28;20387;-64
2022/12/07 13:56:20;;;;;;;;;;;7.10;99.90;;;;;;5037685;28;20560;-64
2022/12/07 13:58:46;;;;;;;;;;;7.00;99.90;;;;;;5040579;28;20337;-64
2022/12/07 14:01:13;;;;;;;;;;;7.00;99.90;;;;;;5036334;28;19948;-64
2022/12/07 14:03:39;;;;;;;;;;;7.00;99.90;;;;;;5038759;28;19921;-64
2022/12/07 14:06:06;;;;;;;;;;;7.10;99.90;;;;;;5036717;28;19920;-64
2022/12/07 14:08:31;;;;;;;;;;;7.10;99.90;;;;;;5039082;28;20413;-64
2022/12/07 14:10:57;;;;;;;;;;;7.10;99.90;;;;;;5038479;28;20127;-64
2022/12/07 14:13:29;;;;;;;;;;;7.10;99.90;;;;;;5037236;28;20010;-65
2022/12/07 14:15:55;;;;;;;;;;;7.10;99.90;;;;;;5038263;28;20016;-65
2022/12/07 14:18:28;;;;;;;;;;;7.10;99.90;;;;;;5037312;28;20015;-64
2022/12/07 14:21:04;;;;;;;;;;;6.90;99.90;;;;;;5035008;28;19917;-65
2022/12/07 14:23:29;;;;;;;;;;;6.90;99.90;;;;;;5036956;28;19921;-69
2022/12/07 14:26:04;;;;;;;;;;;7.00;99.90;;;;;;5034083;28;19951;-65
2022/12/07 14:28:31;;;;;;;;;;;6.90;99.90;;;;;;5037108;28;19917;-65
2022/12/07 14:30:57;;;;;;;;;;;6.80;99.90;;;;;;5037227;28;20396;-65
2022/12/07 14:33:23;;;;;;;;;;;6.70;99.90;;;;;;5037860;28;19963;-65
2022/12/07 14:35:49;;;;;;;;;;;6.80;99.90;;;;;;5037438;28;19920;-65
2022/12/07 14:38:14;;;;;;;;;;;6.60;99.90;;;;;;5039908;28;20355;-65
2022/12/07 14:40:40;;;;;;;;;;;6.60;99.90;;;;;;5040629;28;19952;-65